< < Back
Terminal Aerodrome Forecast


Current Version              Previous Versions:   1  2  3  4  5  6  7  8  9  

Terminal Aerodrome Forecast

809
FTUS42 KILM 190500
TAFFLO
TAF
KFLO 190522Z 1906/2006 10006KT P6SM SKC
     FM190900 06005KT P6SM BKN020
     FM191500 09010G15KT P6SM VCSH SCT035 BKN060
     FM200000 06006KT P6SM SCT040=



Latest METAR

054
SAUS70 KWBC 200400 RRI
MTRFLO
METAR KFLO 200353Z AUTO 06007KT 10SM CLR 21/17 A3017 RMK AO2 SLP212
T02060167


USA.gov is the U.S. government's official web portal to all federal, state and local government web resources and services.